sensor_id;sensor_type;location;lat;lon;timestamp;pressure;altitude;pressure_sealevel;temperature;humidity
63088;BME280;49173;43.164;27.786;2023-07-08T00:00:17;100243.69;;;26.05;60.70
63088;BME280;49173;43.164;27.786;2023-07-08T00:02:43;100245.09;;;26.00;60.94
63088;BME280;49173;43.164;27.786;2023-07-08T00:05:11;100245.69;;;25.96;60.69
63088;BME280;49173;43.164;27.786;2023-07-08T00:07:38;100242.25;;;25.94;60.81
63088;BME280;49173;43.164;27.786;2023-07-08T00:10:28;100244.31;;;25.92;60.52
63088;BME280;49173;43.164;27.786;2023-07-08T00:12:56;100245.56;;;25.89;60.67
63088;BME280;49173;43.164;27.786;2023-07-08T00:15:28;100253.31;;;25.86;60.66
63088;BME280;49173;43.164;27.786;2023-07-08T00:17:54;100251.81;;;25.83;61.14
63088;BME280;49173;43.164;27.786;2023-07-08T00:20:38;100249.06;;;25.83;60.91
63088;BME280;49173;43.164;27.786;2023-07-08T00:23:05;100248.41;;;25.81;61.09
63088;BME280;49173;43.164;27.786;2023-07-08T00:25:31;100252.84;;;25.82;60.71
63088;BME280;49173;43.164;27.786;2023-07-08T00:27:58;100253.91;;;25.81;60.99
63088;BME280;49173;43.164;27.786;2023-07-08T00:32:52;100245.84;;;25.71;61.17
63088;BME280;49173;43.164;27.786;2023-07-08T00:35:38;100246.25;;;25.68;61.43
63088;BME280;49173;43.164;27.786;2023-07-08T00:38:17;100251.94;;;25.67;61.10
63088;BME280;49173;43.164;27.786;2023-07-08T00:41:06;100240.13;;;25.58;61.21
63088;BME280;49173;43.164;27.786;2023-07-08T00:43:43;100241.56;;;25.54;61.77
63088;BME280;49173;43.164;27.786;2023-07-08T00:51:33;100241.81;;;25.44;62.13
63088;BME280;49173;43.164;27.786;2023-07-08T00:53:59;100248.69;;;25.40;61.92
63088;BME280;49173;43.164;27.786;2023-07-08T00:56:29;100244.91;;;25.41;61.94
63088;BME280;49173;43.164;27.786;2023-07-08T00:59:01;100242.22;;;25.33;61.98
63088;BME280;49173;43.164;27.786;2023-07-08T01:01:29;100241.56;;;25.31;61.99
63088;BME280;49173;43.164;27.786;2023-07-08T01:04:05;100254.59;;;25.29;61.81
63088;BME280;49173;43.164;27.786;2023-07-08T01:06:34;100262.19;;;25.27;61.91
63088;BME280;49173;43.164;27.786;2023-07-08T01:09:07;100258.78;;;25.25;62.12
63088;BME280;49173;43.164;27.786;2023-07-08T01:11:34;100253.47;;;25.24;61.78
63088;BME280;49173;43.164;27.786;2023-07-08T01:14:03;100254.97;;;25.26;61.76
63088;BME280;49173;43.164;27.786;2023-07-08T01:16:31;100257.59;;;25.19;62.11
63088;BME280;49173;43.164;27.786;2023-07-08T01:19:02;100264.47;;;25.15;61.88
63088;BME280;49173;43.164;27.786;2023-07-08T01:21:35;100266.44;;;25.07;62.33
63088;BME280;49173;43.164;27.786;2023-07-08T01:24:05;100266.25;;;25.00;62.42
63088;BME280;49173;43.164;27.786;2023-07-08T01:26:33;100270.41;;;24.96;62.52
63088;BME280;49173;43.164;27.786;2023-07-08T01:29:01;100274.53;;;24.92;62.91
63088;BME280;49173;43.164;27.786;2023-07-08T01:31:28;100269.06;;;24.92;62.52
63088;BME280;49173;43.164;27.786;2023-07-08T01:33:55;100268.38;;;24.90;62.18
63088;BME280;49173;43.164;27.786;2023-07-08T01:36:21;100264.09;;;24.87;62.56
63088;BME280;49173;43.164;27.786;2023-07-08T01:38:48;100270.47;;;24.80;62.87
63088;BME280;49173;43.164;27.786;2023-07-08T01:41:16;100270.34;;;24.73;63.10
63088;BME280;49173;43.164;27.786;2023-07-08T01:43:42;100267.09;;;24.70;63.07
63088;BME280;49173;43.164;27.786;2023-07-08T01:46:18;100273.13;;;24.65;63.34
63088;BME280;49173;43.164;27.786;2023-07-08T01:48:47;100273.16;;;24.57;63.42
63088;BME280;49173;43.164;27.786;2023-07-08T01:51:14;100271.97;;;24.51;63.71
63088;BME280;49173;43.164;27.786;2023-07-08T01:53:42;100264.44;;;24.45;63.98
63088;BME280;49173;43.164;27.786;2023-07-08T01:56:12;100267.53;;;24.42;64.51
63088;BME280;49173;43.164;27.786;2023-07-08T01:58:38;100274.91;;;24.42;64.37
63088;BME280;49173;43.164;27.786;2023-07-08T02:01:04;100267.38;;;24.35;64.65
63088;BME280;49173;43.164;27.786;2023-07-08T02:03:30;100268.72;;;24.31;64.67
63088;BME280;49173;43.164;27.786;2023-07-08T02:05:56;100261.72;;;24.29;64.85
63088;BME280;49173;43.164;27.786;2023-07-08T02:08:22;100268.06;;;24.29;64.36
63088;BME280;49173;43.164;27.786;2023-07-08T02:10:51;100265.13;;;24.31;64.51
63088;BME280;49173;43.164;27.786;2023-07-08T02:13:18;100262.56;;;24.29;64.78
63088;BME280;49173;43.164;27.786;2023-07-08T02:15:44;100260.19;;;24.26;64.34
63088;BME280;49173;43.164;27.786;2023-07-08T02:18:09;100262.78;;;24.20;64.92
63088;BME280;49173;43.164;27.786;2023-07-08T02:20:35;100269.63;;;24.16;65.20
63088;BME280;49173;43.164;27.786;2023-07-08T02:23:01;100262.81;;;24.11;65.29
63088;BME280;49173;43.164;27.786;2023-07-08T02:25:27;100270.31;;;24.09;65.09
63088;BME280;49173;43.164;27.786;2023-07-08T02:27:52;100274.09;;;24.08;65.08
63088;BME280;49173;43.164;27.786;2023-07-08T02:30:26;100275.31;;;24.06;65.46
63088;BME280;49173;43.164;27.786;2023-07-08T02:32:52;100268.78;;;24.07;65.58
63088;BME280;49173;43.164;27.786;2023-07-08T02:35:29;100265.38;;;24.05;65.39
63088;BME280;49173;43.164;27.786;2023-07-08T02:37:56;100265.19;;;24.06;64.62
63088;BME280;49173;43.164;27.786;2023-07-08T02:40:24;100265.38;;;24.05;64.64
63088;BME280;49173;43.164;27.786;2023-07-08T02:42:50;100264.53;;;24.04;64.80
63088;BME280;49173;43.164;27.786;2023-07-08T02:45:17;100260.56;;;24.07;64.26
63088;BME280;49173;43.164;27.786;2023-07-08T02:47:43;100258.00;;;24.05;64.33
63088;BME280;49173;43.164;27.786;2023-07-08T02:50:10;100261.44;;;24.07;64.91
63088;BME280;49173;43.164;27.786;2023-07-08T02:52:37;100261.94;;;24.11;64.62
63088;BME280;49173;43.164;27.786;2023-07-08T02:55:03;100258.84;;;24.14;64.07
63088;BME280;49173;43.164;27.786;2023-07-08T02:57:29;100264.84;;;24.18;63.47
63088;BME280;49173;43.164;27.786;2023-07-08T02:59:55;100274.59;;;24.20;63.09
63088;BME280;49173;43.164;27.786;2023-07-08T03:02:22;100276.97;;;24.23;62.67
63088;BME280;49173;43.164;27.786;2023-07-08T03:04:48;100264.97;;;24.24;62.72
63088;BME280;49173;43.164;27.786;2023-07-08T03:07:16;100271.16;;;24.26;62.50
63088;BME280;49173;43.164;27.786;2023-07-08T03:09:41;100262.09;;;24.26;62.44
63088;BME280;49173;43.164;27.786;2023-07-08T03:12:09;100264.13;;;24.24;62.61
63088;BME280;49173;43.164;27.786;2023-07-08T03:14:35;100269.13;;;24.20;62.69
63088;BME280;49173;43.164;27.786;2023-07-08T03:17:02;100267.75;;;24.16;62.62
63088;BME280;49173;43.164;27.786;2023-07-08T03:19:27;100274.44;;;24.14;62.61
63088;BME280;49173;43.164;27.786;2023-07-08T03:21:53;100275.13;;;24.16;62.56
63088;BME280;49173;43.164;27.786;2023-07-08T03:24:20;100269.13;;;24.20;62.09
63088;BME280;49173;43.164;27.786;2023-07-08T03:26:46;100273.75;;;24.20;62.01
63088;BME280;49173;43.164;27.786;2023-07-08T03:29:17;100279.41;;;24.18;62.16
63088;BME280;49173;43.164;27.786;2023-07-08T03:31:43;100286.78;;;24.18;62.03
63088;BME280;49173;43.164;27.786;2023-07-08T03:34:13;100284.19;;;24.16;62.24
63088;BME280;49173;43.164;27.786;2023-07-08T03:36:44;100277.69;;;24.17;62.14
63088;BME280;49173;43.164;27.786;2023-07-08T03:39:22;100275.28;;;24.14;61.65
63088;BME280;49173;43.164;27.786;2023-07-08T03:41:49;100283.69;;;24.13;61.98
63088;BME280;49173;43.164;27.786;2023-07-08T03:44:22;100279.06;;;24.13;61.67
63088;BME280;49173;43.164;27.786;2023-07-08T03:46:53;100277.69;;;24.09;61.81
63088;BME280;49173;43.164;27.786;2023-07-08T03:49:26;100282.00;;;24.11;61.65
63088;BME280;49173;43.164;27.786;2023-07-08T03:51:55;100282.88;;;24.04;61.84
63088;BME280;49173;43.164;27.786;2023-07-08T03:54:30;100274.97;;;24.01;61.92
63088;BME280;49173;43.164;27.786;2023-07-08T03:57:02;100270.00;;;24.04;62.33
63088;BME280;49173;43.164;27.786;2023-07-08T03:59:34;100275.66;;;24.03;62.09
63088;BME280;49173;43.164;27.786;2023-07-08T04:02:27;100273.09;;;24.01;62.28
63088;BME280;49173;43.164;27.786;2023-07-08T04:04:56;100285.94;;;24.01;62.29
63088;BME280;49173;43.164;27.786;2023-07-08T04:07:31;100288.50;;;24.02;62.27
63088;BME280;49173;43.164;27.786;2023-07-08T04:10:25;100285.59;;;24.04;62.23
63088;BME280;49173;43.164;27.786;2023-07-08T04:12:54;100283.53;;;24.06;62.21
63088;BME280;49173;43.164;27.786;2023-07-08T04:15:24;100292.09;;;24.03;62.07
63088;BME280;49173;43.164;27.786;2023-07-08T04:18:09;100289.53;;;24.01;62.23
63088;BME280;49173;43.164;27.786;2023-07-08T04:20:43;100291.75;;;24.06;62.62
63088;BME280;49173;43.164;27.786;2023-07-08T04:23:19;100286.09;;;24.07;61.96
63088;BME280;49173;43.164;27.786;2023-07-08T04:25:56;100291.94;;;24.04;62.14
63088;BME280;49173;43.164;27.786;2023-07-08T04:28:30;100290.06;;;24.05;61.84
63088;BME280;49173;43.164;27.786;2023-07-08T04:31:00;100293.81;;;23.96;62.35
63088;BME280;49173;43.164;27.786;2023-07-08T04:33:53;100281.34;;;23.85;62.68
63088;BME280;49173;43.164;27.786;2023-07-08T04:36:22;100286.47;;;23.80;62.92
63088;BME280;49173;43.164;27.786;2023-07-08T04:38:53;100277.56;;;23.70;62.84
63088;BME280;49173;43.164;27.786;2023-07-08T04:41:23;100280.13;;;23.71;63.37
63088;BME280;49173;43.164;27.786;2023-07-08T04:43:55;100282.88;;;23.63;65.20
63088;BME280;49173;43.164;27.786;2023-07-08T04:47:01;100277.56;;;23.62;66.08
63088;BME280;49173;43.164;27.786;2023-07-08T04:49:30;100285.25;;;23.66;65.45
63088;BME280;49173;43.164;27.786;2023-07-08T04:52:19;100286.28;;;23.65;65.57
63088;BME280;49173;43.164;27.786;2023-07-08T04:54:56;100287.00;;;23.75;65.75
63088;BME280;49173;43.164;27.786;2023-07-08T04:57:34;100294.69;;;23.80;65.64
63088;BME280;49173;43.164;27.786;2023-07-08T05:00:18;100289.38;;;23.87;64.75
63088;BME280;49173;43.164;27.786;2023-07-08T05:02:51;100298.63;;;23.86;63.93
63088;BME280;49173;43.164;27.786;2023-07-08T05:05:20;100293.16;;;23.86;63.89
63088;BME280;49173;43.164;27.786;2023-07-08T05:07:52;100301.03;;;23.80;63.31
63088;BME280;49173;43.164;27.786;2023-07-08T05:10:44;100304.13;;;23.86;63.17
63088;BME280;49173;43.164;27.786;2023-07-08T05:13:16;100308.72;;;23.93;63.92
63088;BME280;49173;43.164;27.786;2023-07-08T05:15:42;100314.75;;;23.97;63.46
63088;BME280;49173;43.164;27.786;2023-07-08T05:18:15;100310.63;;;24.01;63.81
63088;BME280;49173;43.164;27.786;2023-07-08T05:21:08;100315.59;;;24.05;63.26
63088;BME280;49173;43.164;27.786;2023-07-08T05:23:45;100324.50;;;24.07;61.96
63088;BME280;49173;43.164;27.786;2023-07-08T05:26:17;100319.84;;;24.08;62.23
63088;BME280;49173;43.164;27.786;2023-07-08T05:28:49;100320.22;;;24.13;61.91
63088;BME280;49173;43.164;27.786;2023-07-08T05:31:16;100313.31;;;24.17;61.48
63088;BME280;49173;43.164;27.786;2023-07-08T05:33:42;100317.63;;;24.20;61.07
63088;BME280;49173;43.164;27.786;2023-07-08T05:36:11;100310.75;;;24.16;61.31
63088;BME280;49173;43.164;27.786;2023-07-08T05:38:38;100314.88;;;24.20;60.98
63088;BME280;49173;43.164;27.786;2023-07-08T05:41:13;100306.47;;;24.21;60.75
63088;BME280;49173;43.164;27.786;2023-07-08T05:44:05;100301.53;;;24.25;60.99
63088;BME280;49173;43.164;27.786;2023-07-08T05:46:38;100300.66;;;24.32;60.88
63088;BME280;49173;43.164;27.786;2023-07-08T05:49:18;100309.75;;;24.33;60.25
63088;BME280;49173;43.164;27.786;2023-07-08T05:51:47;100299.09;;;24.38;60.96
63088;BME280;49173;43.164;27.786;2023-07-08T05:54:29;100293.44;;;24.48;60.57
63088;BME280;49173;43.164;27.786;2023-07-08T05:57:04;100297.84;;;24.57;59.74
63088;BME280;49173;43.164;27.786;2023-07-08T06:00:06;100301.06;;;24.69;59.22
63088;BME280;49173;43.164;27.786;2023-07-08T06:02:35;100308.19;;;24.86;59.18
63088;BME280;49173;43.164;27.786;2023-07-08T06:05:11;100291.88;;;24.92;57.80
63088;BME280;49173;43.164;27.786;2023-07-08T06:07:44;100288.94;;;25.02;58.06
63088;BME280;49173;43.164;27.786;2023-07-08T06:10:19;100297.09;;;25.18;56.89
63088;BME280;49173;43.164;27.786;2023-07-08T06:12:54;100296.31;;;25.33;55.92
63088;BME280;49173;43.164;27.786;2023-07-08T06:15:32;100284.09;;;25.35;55.49
63088;BME280;49173;43.164;27.786;2023-07-08T06:18:01;100293.75;;;25.31;55.59
63088;BME280;49173;43.164;27.786;2023-07-08T06:20:32;100298.69;;;25.36;56.28
63088;BME280;49173;43.164;27.786;2023-07-08T06:22:59;100292.28;;;25.43;56.25
63088;BME280;49173;43.164;27.786;2023-07-08T06:25:37;100294.81;;;25.53;55.33
63088;BME280;49173;43.164;27.786;2023-07-08T06:28:04;100296.63;;;25.61;54.51
63088;BME280;49173;43.164;27.786;2023-07-08T06:30:36;100289.72;;;25.65;54.41
63088;BME280;49173;43.164;27.786;2023-07-08T06:33:15;100276.09;;;25.71;54.70
63088;BME280;49173;43.164;27.786;2023-07-08T06:35:45;100302.69;;;25.79;53.56
63088;BME280;49173;43.164;27.786;2023-07-08T06:41:01;100286.88;;;25.81;54.06
63088;BME280;49173;43.164;27.786;2023-07-08T06:43:27;100278.91;;;25.86;54.42
63088;BME280;49173;43.164;27.786;2023-07-08T06:45:56;100285.97;;;25.89;53.86
63088;BME280;49173;43.164;27.786;2023-07-08T06:48:23;100278.44;;;25.83;54.04
63088;BME280;49173;43.164;27.786;2023-07-08T06:50:59;100263.19;;;25.80;54.81
63088;BME280;49173;43.164;27.786;2023-07-08T06:53:34;100275.34;;;26.00;54.37
63088;BME280;49173;43.164;27.786;2023-07-08T06:56:00;100274.81;;;26.20;54.71
63088;BME280;49173;43.164;27.786;2023-07-08T06:58:30;100277.34;;;26.44;53.52
63088;BME280;49173;43.164;27.786;2023-07-08T07:01:09;100281.31;;;26.56;53.49
63088;BME280;49173;43.164;27.786;2023-07-08T07:03:41;100273.94;;;26.72;52.18
63088;BME280;49173;43.164;27.786;2023-07-08T07:06:15;100279.34;;;26.65;51.63
63088;BME280;49173;43.164;27.786;2023-07-08T07:08:46;100274.88;;;26.49;52.22
63088;BME280;49173;43.164;27.786;2023-07-08T07:11:21;100270.59;;;26.47;52.67
63088;BME280;49173;43.164;27.786;2023-07-08T07:14:05;100282.75;;;26.52;52.92
63088;BME280;49173;43.164;27.786;2023-07-08T07:16:37;100286.06;;;26.63;52.22
63088;BME280;49173;43.164;27.786;2023-07-08T07:19:18;100299.06;;;26.83;52.22
63088;BME280;49173;43.164;27.786;2023-07-08T07:21:52;100291.94;;;26.89;51.78
63088;BME280;49173;43.164;27.786;2023-07-08T07:24:27;100288.63;;;26.94;50.79
63088;BME280;49173;43.164;27.786;2023-07-08T07:26:56;100286.44;;;26.89;49.59
63088;BME280;49173;43.164;27.786;2023-07-08T07:29:25;100290.81;;;26.69;50.87
63088;BME280;49173;43.164;27.786;2023-07-08T07:31:52;100286.56;;;26.66;51.11
63088;BME280;49173;43.164;27.786;2023-07-08T07:34:26;100287.97;;;26.62;51.91
63088;BME280;49173;43.164;27.786;2023-07-08T07:36:53;100287.50;;;26.59;52.18
63088;BME280;49173;43.164;27.786;2023-07-08T07:39:21;100298.44;;;26.52;52.49
63088;BME280;49173;43.164;27.786;2023-07-08T07:41:55;100297.66;;;26.43;52.73
63088;BME280;49173;43.164;27.786;2023-07-08T07:44:24;100297.84;;;26.42;52.50
63088;BME280;49173;43.164;27.786;2023-07-08T07:46:55;100308.78;;;26.27;52.77
63088;BME280;49173;43.164;27.786;2023-07-08T07:49:29;100313.41;;;26.12;53.09
63088;BME280;49173;43.164;27.786;2023-07-08T07:51:58;100300.88;;;25.94;54.21
63088;BME280;49173;43.164;27.786;2023-07-08T07:54:48;100315.56;;;25.87;53.36
63088;BME280;49173;43.164;27.786;2023-07-08T07:57:40;100295.69;;;25.77;52.63
63088;BME280;49173;43.164;27.786;2023-07-08T08:00:16;100297.59;;;25.76;52.47
63088;BME280;49173;43.164;27.786;2023-07-08T08:02:45;100294.16;;;25.74;53.10
63088;BME280;49173;43.164;27.786;2023-07-08T08:05:14;100293.56;;;25.87;53.42
63088;BME280;49173;43.164;27.786;2023-07-08T08:07:52;100287.81;;;26.11;52.99
63088;BME280;49173;43.164;27.786;2023-07-08T08:10:44;100292.19;;;26.35;52.80
63088;BME280;49173;43.164;27.786;2023-07-08T08:13:18;100285.72;;;26.51;51.60
63088;BME280;49173;43.164;27.786;2023-07-08T08:15:55;100274.88;;;26.64;51.64
63088;BME280;49173;43.164;27.786;2023-07-08T08:18:24;100270.13;;;26.73;50.61
63088;BME280;49173;43.164;27.786;2023-07-08T08:21:02;100257.31;;;26.80;51.52
63088;BME280;49173;43.164;27.786;2023-07-08T08:23:43;100265.41;;;27.03;50.66
63088;BME280;49173;43.164;27.786;2023-07-08T08:26:10;100258.84;;;27.19;50.64
63088;BME280;49173;43.164;27.786;2023-07-08T08:28:36;100275.53;;;27.32;49.77
63088;BME280;49173;43.164;27.786;2023-07-08T08:31:06;100282.88;;;27.46;50.07
63088;BME280;49173;43.164;27.786;2023-07-08T08:33:35;100268.59;;;27.57;48.91
63088;BME280;49173;43.164;27.786;2023-07-08T08:36:04;100280.75;;;27.63;49.36
63088;BME280;49173;43.164;27.786;2023-07-08T08:38:41;100277.53;;;27.81;47.84
63088;BME280;49173;43.164;27.786;2023-07-08T08:41:32;100288.19;;;27.84;48.07
63088;BME280;49173;43.164;27.786;2023-07-08T08:44:05;100278.06;;;27.91;46.84
63088;BME280;49173;43.164;27.786;2023-07-08T08:49:26;100280.81;;;27.91;46.69
63088;BME280;49173;43.164;27.786;2023-07-08T08:52:00;100282.13;;;27.95;46.08
63088;BME280;49173;43.164;27.786;2023-07-08T08:54:36;100283.16;;;27.94;46.36
63088;BME280;49173;43.164;27.786;2023-07-08T09:03:15;100321.09;;;27.85;47.89
63088;BME280;49173;43.164;27.786;2023-07-08T09:05:46;100326.13;;;27.82;47.64
63088;BME280;49173;43.164;27.786;2023-07-08T09:13:36;100320.63;;;27.82;47.64
63088;BME280;49173;43.164;27.786;2023-07-08T09:25:34;100309.41;;;28.11;46.24
63088;BME280;49173;43.164;27.786;2023-07-08T09:28:05;100346.34;;;28.10;46.96
63088;BME280;49173;43.164;27.786;2023-07-08T09:33:10;100330.50;;;27.98;46.43
63088;BME280;49173;43.164;27.786;2023-07-08T09:35:52;100330.44;;;27.70;45.38
63088;BME280;49173;43.164;27.786;2023-07-08T09:38:27;100343.81;;;27.51;45.84
63088;BME280;49173;43.164;27.786;2023-07-08T09:41:02;100336.81;;;27.49;47.26
63088;BME280;49173;43.164;27.786;2023-07-08T09:43:39;100338.06;;;27.31;46.31
63088;BME280;49173;43.164;27.786;2023-07-08T09:46:15;100338.75;;;27.19;45.62
63088;BME280;49173;43.164;27.786;2023-07-08T09:48:42;100343.25;;;27.05;46.75
63088;BME280;49173;43.164;27.786;2023-07-08T09:51:22;100325.75;;;27.13;46.79
63088;BME280;49173;43.164;27.786;2023-07-08T09:53:51;100329.72;;;27.25;46.70
63088;BME280;49173;43.164;27.786;2023-07-08T09:56:32;100325.41;;;27.37;47.73
63088;BME280;49173;43.164;27.786;2023-07-08T09:59:32;100330.41;;;27.48;46.08
63088;BME280;49173;43.164;27.786;2023-07-08T10:08:01;100336.16;;;27.68;45.64
63088;BME280;49173;43.164;27.786;2023-07-08T10:10:40;100326.38;;;27.65;45.72
63088;BME280;49173;43.164;27.786;2023-07-08T10:16:24;100337.03;;;27.69;46.06
63088;BME280;49173;43.164;27.786;2023-07-08T10:19:00;100339.28;;;27.80;45.39
63088;BME280;49173;43.164;27.786;2023-07-08T10:30:14;100341.19;;;27.43;46.04
63088;BME280;49173;43.164;27.786;2023-07-08T10:42:26;100327.81;;;27.83;45.06
63088;BME280;49173;43.164;27.786;2023-07-08T10:45:23;100327.19;;;27.81;45.51
63088;BME280;49173;43.164;27.786;2023-07-08T10:47:56;100336.06;;;27.61;45.69
63088;BME280;49173;43.164;27.786;2023-07-08T11:09:53;100346.28;;;28.04;45.11
63088;BME280;49173;43.164;27.786;2023-07-08T11:12:50;100358.16;;;28.04;45.12
63088;BME280;49173;43.164;27.786;2023-07-08T11:15:36;100342.94;;;27.87;44.83
63088;BME280;49173;43.164;27.786;2023-07-08T11:18:17;100342.94;;;27.87;44.24
63088;BME280;49173;43.164;27.786;2023-07-08T11:21:26;100345.56;;;27.74;45.03
63088;BME280;49173;43.164;27.786;2023-07-08T11:27:16;100339.59;;;27.55;45.59
63088;BME280;49173;43.164;27.786;2023-07-08T11:30:03;100342.19;;;27.57;45.43
63088;BME280;49173;43.164;27.786;2023-07-08T11:32:34;100337.81;;;27.48;45.66
63088;BME280;49173;43.164;27.786;2023-07-08T11:38:01;100343.69;;;27.59;45.10
63088;BME280;49173;43.164;27.786;2023-07-08T11:40:50;100338.56;;;27.71;45.03
63088;BME280;49173;43.164;27.786;2023-07-08T11:43:20;100338.63;;;27.78;44.10
63088;BME280;49173;43.164;27.786;2023-07-08T11:45:57;100334.44;;;27.67;44.23
63088;BME280;49173;43.164;27.786;2023-07-08T11:48:27;100337.13;;;27.60;44.74
63088;BME280;49173;43.164;27.786;2023-07-08T11:51:06;100341.84;;;27.45;44.99
63088;BME280;49173;43.164;27.786;2023-07-08T11:53:50;100333.31;;;27.25;45.35
63088;BME280;49173;43.164;27.786;2023-07-08T11:56:28;100338.63;;;27.27;46.19
63088;BME280;49173;43.164;27.786;2023-07-08T11:59:21;100341.69;;;27.32;45.33
63088;BME280;49173;43.164;27.786;2023-07-08T12:05:13;100344.06;;;27.20;44.98
63088;BME280;49173;43.164;27.786;2023-07-08T12:07:45;100333.53;;;27.24;45.62
63088;BME280;49173;43.164;27.786;2023-07-08T12:10:33;100335.22;;;27.25;45.24
63088;BME280;49173;43.164;27.786;2023-07-08T12:13:14;100334.66;;;27.29;44.73
63088;BME280;49173;43.164;27.786;2023-07-08T12:15:41;100333.22;;;27.33;45.13
63088;BME280;49173;43.164;27.786;2023-07-08T12:36:30;100336.13;;;27.10;46.51
63088;BME280;49173;43.164;27.786;2023-07-08T12:38:59;100332.88;;;27.22;45.42
63088;BME280;49173;43.164;27.786;2023-07-08T12:41:36;100338.78;;;27.40;46.04
63088;BME280;49173;43.164;27.786;2023-07-08T12:44:26;100340.28;;;27.57;43.34
63088;BME280;49173;43.164;27.786;2023-07-08T12:46:56;100319.94;;;27.58;42.55
63088;BME280;49173;43.164;27.786;2023-07-08T13:34:18;100343.03;;;28.43;41.39
63088;BME280;49173;43.164;27.786;2023-07-08T13:36:47;100336.03;;;28.47;39.95
63088;BME280;49173;43.164;27.786;2023-07-08T13:39:33;100339.06;;;28.52;40.21
63088;BME280;49173;43.164;27.786;2023-07-08T13:42:06;100325.47;;;28.51;40.24
63088;BME280;49173;43.164;27.786;2023-07-08T13:44:45;100342.66;;;28.53;40.00
63088;BME280;49173;43.164;27.786;2023-07-08T13:47:27;100357.28;;;28.46;40.24
63088;BME280;49173;43.164;27.786;2023-07-08T13:50:14;100362.56;;;28.41;39.52
63088;BME280;49173;43.164;27.786;2023-07-08T13:52:53;100372.41;;;28.29;39.80
63088;BME280;49173;43.164;27.786;2023-07-08T13:55:43;100377.69;;;28.03;39.83
63088;BME280;49173;43.164;27.786;2023-07-08T13:58:25;100363.97;;;27.88;40.41
63088;BME280;49173;43.164;27.786;2023-07-08T14:00:56;100368.69;;;27.94;41.70
63088;BME280;49173;43.164;27.786;2023-07-08T14:03:25;100380.06;;;28.06;40.65
63088;BME280;49173;43.164;27.786;2023-07-08T14:06:03;100376.97;;;28.15;40.52
63088;BME280;49173;43.164;27.786;2023-07-08T14:08:32;100389.31;;;28.19;39.54
63088;BME280;49173;43.164;27.786;2023-07-08T14:10:57;100381.97;;;28.05;40.48
63088;BME280;49173;43.164;27.786;2023-07-08T14:13:41;100386.03;;;27.88;40.46
63088;BME280;49173;43.164;27.786;2023-07-08T14:16:30;100379.44;;;27.68;40.33
63088;BME280;49173;43.164;27.786;2023-07-08T14:19:14;100397.41;;;27.63;41.86
63088;BME280;49173;43.164;27.786;2023-07-08T14:24:49;100397.97;;;27.74;41.94
63088;BME280;49173;43.164;27.786;2023-07-08T14:27:27;100400.59;;;27.82;40.96
63088;BME280;49173;43.164;27.786;2023-07-08T14:29:59;100399.56;;;27.83;40.67
63088;BME280;49173;43.164;27.786;2023-07-08T14:32:37;100394.59;;;27.93;41.16
63088;BME280;49173;43.164;27.786;2023-07-08T14:35:28;100396.09;;;27.96;40.92
63088;BME280;49173;43.164;27.786;2023-07-08T14:38:16;100391.22;;;27.98;40.35
63088;BME280;49173;43.164;27.786;2023-07-08T14:40:56;100398.78;;;27.89;40.38
63088;BME280;49173;43.164;27.786;2023-07-08T14:43:54;100387.28;;;27.85;40.37
63088;BME280;49173;43.164;27.786;2023-07-08T14:46:21;100397.06;;;27.88;41.05
63088;BME280;49173;43.164;27.786;2023-07-08T14:48:50;100384.78;;;27.90;40.80
63088;BME280;49173;43.164;27.786;2023-07-08T14:51:34;100380.25;;;28.04;40.32
63088;BME280;49173;43.164;27.786;2023-07-08T14:54:00;100378.81;;;28.08;40.27
63088;BME280;49173;43.164;27.786;2023-07-08T14:56:30;100378.22;;;28.13;39.55
63088;BME280;49173;43.164;27.786;2023-07-08T14:58:59;100379.25;;;28.12;39.67
63088;BME280;49173;43.164;27.786;2023-07-08T15:01:31;100381.06;;;28.19;38.49
63088;BME280;49173;43.164;27.786;2023-07-08T15:04:00;100379.06;;;28.13;39.86
63088;BME280;49173;43.164;27.786;2023-07-08T15:06:26;100375.63;;;28.11;39.09
63088;BME280;49173;43.164;27.786;2023-07-08T15:09:14;100372.38;;;28.01;38.77
63088;BME280;49173;43.164;27.786;2023-07-08T15:11:50;100371.59;;;27.86;39.37
63088;BME280;49173;43.164;27.786;2023-07-08T15:14:24;100366.22;;;27.63;40.07
63088;BME280;49173;43.164;27.786;2023-07-08T15:16:54;100377.84;;;27.58;39.78
63088;BME280;49173;43.164;27.786;2023-07-08T15:19:24;100370.63;;;27.57;40.88
63088;BME280;49173;43.164;27.786;2023-07-08T15:21:54;100369.34;;;27.60;39.99
63088;BME280;49173;43.164;27.786;2023-07-08T15:24:20;100378.69;;;27.59;39.28
63088;BME280;49173;43.164;27.786;2023-07-08T15:27:04;100376.16;;;27.43;39.94
63088;BME280;49173;43.164;27.786;2023-07-08T15:29:46;100371.63;;;27.35;40.61
63088;BME280;49173;43.164;27.786;2023-07-08T15:32:17;100374.13;;;27.15;40.38
63088;BME280;49173;43.164;27.786;2023-07-08T15:34:47;100371.63;;;27.20;40.34
63088;BME280;49173;43.164;27.786;2023-07-08T15:37:21;100371.56;;;27.14;40.12
63088;BME280;49173;43.164;27.786;2023-07-08T15:39:53;100367.34;;;27.03;39.81
63088;BME280;49173;43.164;27.786;2023-07-08T15:42:27;100368.75;;;26.99;39.81
63088;BME280;49173;43.164;27.786;2023-07-08T15:44:56;100373.31;;;26.92;40.96
63088;BME280;49173;43.164;27.786;2023-07-08T15:47:33;100382.63;;;26.91;41.22
63088;BME280;49173;43.164;27.786;2023-07-08T15:50:15;100386.63;;;26.88;40.82
63088;BME280;49173;43.164;27.786;2023-07-08T15:52:45;100389.75;;;26.85;40.35